sensor_id;sensor_type;location;lat;lon;timestamp;P1;durP1;ratioP1;P2;durP2;ratioP2
1765;SDS011;880;52.452;8.656;2023-01-24T00:01:00;27.90;;;16.30;;
1765;SDS011;880;52.452;8.656;2023-01-24T00:03:27;28.83;;;18.27;;
1765;SDS011;880;52.452;8.656;2023-01-24T00:05:55;26.27;;;16.80;;
1765;SDS011;880;52.452;8.656;2023-01-24T00:08:22;28.10;;;16.20;;
1765;SDS011;880;52.452;8.656;2023-01-24T00:10:49;28.93;;;17.43;;
1765;SDS011;880;52.452;8.656;2023-01-24T00:13:30;24.17;;;15.90;;
1765;SDS011;880;52.452;8.656;2023-01-24T00:16:15;26.00;;;17.23;;
1765;SDS011;880;52.452;8.656;2023-01-24T00:18:45;25.00;;;15.23;;
1765;SDS011;880;52.452;8.656;2023-01-24T00:21:14;27.67;;;18.57;;
1765;SDS011;880;52.452;8.656;2023-01-24T00:23:48;26.40;;;16.47;;
1765;SDS011;880;52.452;8.656;2023-01-24T00:26:17;28.50;;;17.30;;
1765;SDS011;880;52.452;8.656;2023-01-24T00:28:45;24.10;;;15.63;;
1765;SDS011;880;52.452;8.656;2023-01-24T00:31:13;28.27;;;17.07;;
1765;SDS011;880;52.452;8.656;2023-01-24T00:33:41;25.70;;;15.90;;
1765;SDS011;880;52.452;8.656;2023-01-24T00:36:10;27.73;;;17.23;;
1765;SDS011;880;52.452;8.656;2023-01-24T00:38:38;27.03;;;17.13;;
1765;SDS011;880;52.452;8.656;2023-01-24T00:41:05;26.57;;;16.37;;
1765;SDS011;880;52.452;8.656;2023-01-24T00:43:32;27.37;;;16.40;;
1765;SDS011;880;52.452;8.656;2023-01-24T00:45:59;22.40;;;16.00;;
1765;SDS011;880;52.452;8.656;2023-01-24T00:48:27;25.00;;;15.83;;
1765;SDS011;880;52.452;8.656;2023-01-24T00:50:54;27.00;;;15.90;;
1765;SDS011;880;52.452;8.656;2023-01-24T00:53:21;25.57;;;15.77;;
1765;SDS011;880;52.452;8.656;2023-01-24T00:55:48;26.00;;;14.77;;
1765;SDS011;880;52.452;8.656;2023-01-24T00:58:16;27.47;;;15.90;;
1765;SDS011;880;52.452;8.656;2023-01-24T01:00:43;23.30;;;14.70;;
1765;SDS011;880;52.452;8.656;2023-01-24T01:03:11;19.97;;;14.63;;
1765;SDS011;880;52.452;8.656;2023-01-24T01:05:45;25.10;;;16.13;;
1765;SDS011;880;52.452;8.656;2023-01-24T01:08:12;25.33;;;15.87;;
1765;SDS011;880;52.452;8.656;2023-01-24T01:10:39;22.20;;;14.50;;
1765;SDS011;880;52.452;8.656;2023-01-24T01:13:07;22.47;;;14.37;;
1765;SDS011;880;52.452;8.656;2023-01-24T01:15:35;24.47;;;15.60;;
1765;SDS011;880;52.452;8.656;2023-01-24T01:18:02;22.83;;;14.80;;
1765;SDS011;880;52.452;8.656;2023-01-24T01:20:29;21.90;;;14.97;;
1765;SDS011;880;52.452;8.656;2023-01-24T01:22:56;21.60;;;14.30;;
1765;SDS011;880;52.452;8.656;2023-01-24T01:25:23;20.90;;;14.17;;
1765;SDS011;880;52.452;8.656;2023-01-24T01:27:50;24.00;;;15.47;;
1765;SDS011;880;52.452;8.656;2023-01-24T01:30:17;20.43;;;14.43;;
1765;SDS011;880;52.452;8.656;2023-01-24T01:32:44;19.80;;;13.40;;
1765;SDS011;880;52.452;8.656;2023-01-24T01:35:11;20.97;;;13.93;;
1765;SDS011;880;52.452;8.656;2023-01-24T01:37:38;19.63;;;12.87;;
1765;SDS011;880;52.452;8.656;2023-01-24T01:40:05;17.17;;;12.57;;
1765;SDS011;880;52.452;8.656;2023-01-24T01:43:08;17.43;;;12.87;;
1765;SDS011;880;52.452;8.656;2023-01-24T01:48:15;16.47;;;11.43;;
1765;SDS011;880;52.452;8.656;2023-01-24T01:51:08;18.07;;;12.07;;
1765;SDS011;880;52.452;8.656;2023-01-24T01:53:44;16.30;;;11.90;;
1765;SDS011;880;52.452;8.656;2023-01-24T01:56:30;14.03;;;10.67;;
1765;SDS011;880;52.452;8.656;2023-01-24T01:59:07;16.10;;;11.63;;
1765;SDS011;880;52.452;8.656;2023-01-24T02:01:41;15.43;;;11.30;;
1765;SDS011;880;52.452;8.656;2023-01-24T02:04:16;15.77;;;10.60;;
1765;SDS011;880;52.452;8.656;2023-01-24T02:09:40;13.90;;;10.40;;
1765;SDS011;880;52.452;8.656;2023-01-24T02:12:10;11.67;;;9.63;;
1765;SDS011;880;52.452;8.656;2023-01-24T02:14:44;13.53;;;9.73;;
1765;SDS011;880;52.452;8.656;2023-01-24T02:17:33;13.17;;;8.97;;
1765;SDS011;880;52.452;8.656;2023-01-24T02:20:03;12.33;;;9.70;;
1765;SDS011;880;52.452;8.656;2023-01-24T02:28:06;14.70;;;10.67;;
1765;SDS011;880;52.452;8.656;2023-01-24T02:30:36;12.50;;;9.60;;
1765;SDS011;880;52.452;8.656;2023-01-24T02:33:12;12.90;;;9.97;;
1765;SDS011;880;52.452;8.656;2023-01-24T02:35:42;11.90;;;9.97;;
1765;SDS011;880;52.452;8.656;2023-01-24T02:38:18;10.90;;;9.30;;
1765;SDS011;880;52.452;8.656;2023-01-24T02:40:50;13.90;;;9.77;;
1765;SDS011;880;52.452;8.656;2023-01-24T02:43:22;11.17;;;9.50;;
1765;SDS011;880;52.452;8.656;2023-01-24T02:45:52;13.30;;;10.03;;
1765;SDS011;880;52.452;8.656;2023-01-24T02:48:19;12.70;;;10.57;;
1765;SDS011;880;52.452;8.656;2023-01-24T02:50:46;12.43;;;9.37;;
1765;SDS011;880;52.452;8.656;2023-01-24T02:53:31;12.47;;;9.17;;
1765;SDS011;880;52.452;8.656;2023-01-24T02:56:00;13.23;;;9.93;;
1765;SDS011;880;52.452;8.656;2023-01-24T02:58:48;12.83;;;10.73;;
1765;SDS011;880;52.452;8.656;2023-01-24T03:01:15;12.27;;;9.30;;
1765;SDS011;880;52.452;8.656;2023-01-24T03:03:48;13.57;;;10.27;;
1765;SDS011;880;52.452;8.656;2023-01-24T03:06:17;14.97;;;10.93;;
1765;SDS011;880;52.452;8.656;2023-01-24T03:08:45;13.90;;;10.70;;
1765;SDS011;880;52.452;8.656;2023-01-24T03:11:21;11.50;;;9.77;;
1765;SDS011;880;52.452;8.656;2023-01-24T03:13:48;13.60;;;9.47;;
1765;SDS011;880;52.452;8.656;2023-01-24T03:16:35;12.33;;;10.40;;
1765;SDS011;880;52.452;8.656;2023-01-24T03:19:20;10.20;;;9.10;;
1765;SDS011;880;52.452;8.656;2023-01-24T03:22:06;12.70;;;10.10;;
1765;SDS011;880;52.452;8.656;2023-01-24T03:24:51;11.23;;;9.80;;
1765;SDS011;880;52.452;8.656;2023-01-24T03:27:38;11.50;;;10.17;;
1765;SDS011;880;52.452;8.656;2023-01-24T03:30:28;12.10;;;8.83;;
1765;SDS011;880;52.452;8.656;2023-01-24T03:33:14;10.67;;;9.57;;
1765;SDS011;880;52.452;8.656;2023-01-24T03:36:00;11.43;;;9.83;;
1765;SDS011;880;52.452;8.656;2023-01-24T03:38:31;11.43;;;10.10;;
1765;SDS011;880;52.452;8.656;2023-01-24T03:41:19;11.63;;;9.73;;
1765;SDS011;880;52.452;8.656;2023-01-24T03:43:46;13.03;;;9.83;;
1765;SDS011;880;52.452;8.656;2023-01-24T03:46:13;11.43;;;9.40;;
1765;SDS011;880;52.452;8.656;2023-01-24T03:48:51;10.33;;;8.90;;
1765;SDS011;880;52.452;8.656;2023-01-24T03:51:24;12.93;;;10.60;;
1765;SDS011;880;52.452;8.656;2023-01-24T03:54:10;12.93;;;10.50;;
1765;SDS011;880;52.452;8.656;2023-01-24T03:56:54;10.60;;;9.50;;
1765;SDS011;880;52.452;8.656;2023-01-24T03:59:22;10.53;;;9.40;;
1765;SDS011;880;52.452;8.656;2023-01-24T04:01:50;11.73;;;10.53;;
1765;SDS011;880;52.452;8.656;2023-01-24T04:04:24;10.40;;;9.30;;
1765;SDS011;880;52.452;8.656;2023-01-24T04:07:11;10.93;;;9.33;;
1765;SDS011;880;52.452;8.656;2023-01-24T04:09:53;12.27;;;8.87;;
1765;SDS011;880;52.452;8.656;2023-01-24T04:12:21;12.37;;;9.33;;
1765;SDS011;880;52.452;8.656;2023-01-24T04:14:48;12.77;;;9.03;;
1765;SDS011;880;52.452;8.656;2023-01-24T04:17:15;11.37;;;9.37;;
1765;SDS011;880;52.452;8.656;2023-01-24T04:19:45;9.77;;;7.60;;
1765;SDS011;880;52.452;8.656;2023-01-24T04:22:14;9.40;;;8.47;;
1765;SDS011;880;52.452;8.656;2023-01-24T04:24:43;10.47;;;8.87;;
1765;SDS011;880;52.452;8.656;2023-01-24T04:27:11;11.43;;;8.90;;
1765;SDS011;880;52.452;8.656;2023-01-24T04:29:52;10.90;;;9.27;;
1765;SDS011;880;52.452;8.656;2023-01-24T04:32:19;9.13;;;7.30;;
1765;SDS011;880;52.452;8.656;2023-01-24T04:34:51;11.53;;;9.03;;
1765;SDS011;880;52.452;8.656;2023-01-24T04:37:36;11.60;;;8.77;;
1765;SDS011;880;52.452;8.656;2023-01-24T04:40:04;12.20;;;9.70;;
1765;SDS011;880;52.452;8.656;2023-01-24T04:42:32;11.60;;;10.20;;
1765;SDS011;880;52.452;8.656;2023-01-24T04:45:00;11.07;;;8.63;;
1765;SDS011;880;52.452;8.656;2023-01-24T04:47:27;10.10;;;8.60;;
1765;SDS011;880;52.452;8.656;2023-01-24T04:49:54;10.60;;;9.10;;
1765;SDS011;880;52.452;8.656;2023-01-24T04:52:21;9.97;;;8.80;;
1765;SDS011;880;52.452;8.656;2023-01-24T04:54:59;11.37;;;9.97;;
1765;SDS011;880;52.452;8.656;2023-01-24T04:57:27;10.50;;;8.60;;
1765;SDS011;880;52.452;8.656;2023-01-24T04:59:54;9.00;;;8.10;;
1765;SDS011;880;52.452;8.656;2023-01-24T05:02:22;10.07;;;8.43;;
1765;SDS011;880;52.452;8.656;2023-01-24T05:04:48;10.80;;;8.37;;
1765;SDS011;880;52.452;8.656;2023-01-24T05:07:16;9.37;;;8.00;;
1765;SDS011;880;52.452;8.656;2023-01-24T05:09:48;8.63;;;7.73;;
1765;SDS011;880;52.452;8.656;2023-01-24T05:12:15;9.97;;;8.63;;
1765;SDS011;880;52.452;8.656;2023-01-24T05:14:43;11.27;;;8.57;;
1765;SDS011;880;52.452;8.656;2023-01-24T05:17:10;10.90;;;8.67;;
1765;SDS011;880;52.452;8.656;2023-01-24T05:19:37;10.30;;;7.90;;
1765;SDS011;880;52.452;8.656;2023-01-24T05:22:04;9.70;;;7.30;;
1765;SDS011;880;52.452;8.656;2023-01-24T05:24:36;8.30;;;6.63;;
1765;SDS011;880;52.452;8.656;2023-01-24T05:27:04;9.07;;;7.37;;
1765;SDS011;880;52.452;8.656;2023-01-24T05:29:33;9.00;;;7.37;;
1765;SDS011;880;52.452;8.656;2023-01-24T05:32:02;8.73;;;7.70;;
1765;SDS011;880;52.452;8.656;2023-01-24T05:34:30;8.63;;;7.13;;
1765;SDS011;880;52.452;8.656;2023-01-24T05:36:57;9.97;;;8.27;;
1765;SDS011;880;52.452;8.656;2023-01-24T05:39:24;9.27;;;8.37;;
1765;SDS011;880;52.452;8.656;2023-01-24T05:41:52;9.93;;;7.97;;
1765;SDS011;880;52.452;8.656;2023-01-24T05:44:21;9.87;;;8.70;;
1765;SDS011;880;52.452;8.656;2023-01-24T05:46:48;6.23;;;5.63;;
1765;SDS011;880;52.452;8.656;2023-01-24T05:49:19;8.43;;;6.83;;
1765;SDS011;880;52.452;8.656;2023-01-24T05:51:48;6.57;;;5.97;;
1765;SDS011;880;52.452;8.656;2023-01-24T05:54:26;5.83;;;5.30;;
1765;SDS011;880;52.452;8.656;2023-01-24T05:56:57;6.00;;;5.40;;
1765;SDS011;880;52.452;8.656;2023-01-24T05:59:28;7.07;;;6.03;;
1765;SDS011;880;52.452;8.656;2023-01-24T06:01:56;8.40;;;6.77;;
1765;SDS011;880;52.452;8.656;2023-01-24T06:04:24;6.43;;;5.80;;
1765;SDS011;880;52.452;8.656;2023-01-24T06:06:50;6.77;;;6.07;;
1765;SDS011;880;52.452;8.656;2023-01-24T06:09:17;7.80;;;7.00;;
1765;SDS011;880;52.452;8.656;2023-01-24T06:11:45;5.60;;;5.10;;
1765;SDS011;880;52.452;8.656;2023-01-24T06:14:16;7.80;;;6.97;;
1765;SDS011;880;52.452;8.656;2023-01-24T06:16:44;6.10;;;5.50;;
1765;SDS011;880;52.452;8.656;2023-01-24T06:19:13;6.10;;;5.60;;
1765;SDS011;880;52.452;8.656;2023-01-24T06:21:45;6.90;;;6.27;;
1765;SDS011;880;52.452;8.656;2023-01-24T06:24:41;8.00;;;7.20;;
1765;SDS011;880;52.452;8.656;2023-01-24T06:27:21;9.13;;;7.23;;
1765;SDS011;880;52.452;8.656;2023-01-24T06:29:48;9.30;;;8.30;;
1765;SDS011;880;52.452;8.656;2023-01-24T06:32:22;8.77;;;7.87;;
1765;SDS011;880;52.452;8.656;2023-01-24T06:37:44;9.73;;;8.27;;
1765;SDS011;880;52.452;8.656;2023-01-24T06:40:15;9.77;;;8.77;;
1765;SDS011;880;52.452;8.656;2023-01-24T06:42:45;11.23;;;10.03;;
1765;SDS011;880;52.452;8.656;2023-01-24T06:45:13;11.10;;;9.83;;
1765;SDS011;880;52.452;8.656;2023-01-24T06:47:40;10.17;;;8.80;;
1765;SDS011;880;52.452;8.656;2023-01-24T06:50:16;9.67;;;8.67;;
1765;SDS011;880;52.452;8.656;2023-01-24T06:52:47;11.83;;;9.33;;
1765;SDS011;880;52.452;8.656;2023-01-24T06:55:15;10.37;;;9.33;;
1765;SDS011;880;52.452;8.656;2023-01-24T06:57:43;10.97;;;9.70;;
1765;SDS011;880;52.452;8.656;2023-01-24T07:00:12;9.40;;;8.50;;
1765;SDS011;880;52.452;8.656;2023-01-24T07:02:40;12.50;;;10.20;;
1765;SDS011;880;52.452;8.656;2023-01-24T07:05:07;11.43;;;9.07;;
1765;SDS011;880;52.452;8.656;2023-01-24T07:07:34;10.43;;;9.33;;
1765;SDS011;880;52.452;8.656;2023-01-24T07:10:02;11.20;;;9.50;;
1765;SDS011;880;52.452;8.656;2023-01-24T07:12:29;10.80;;;9.30;;
1765;SDS011;880;52.452;8.656;2023-01-24T07:14:56;11.73;;;9.47;;
1765;SDS011;880;52.452;8.656;2023-01-24T07:17:23;11.47;;;10.40;;
1765;SDS011;880;52.452;8.656;2023-01-24T07:19:50;10.50;;;9.40;;
1765;SDS011;880;52.452;8.656;2023-01-24T07:22:18;12.33;;;10.47;;
1765;SDS011;880;52.452;8.656;2023-01-24T07:24:45;10.93;;;9.80;;
1765;SDS011;880;52.452;8.656;2023-01-24T07:27:13;11.10;;;9.70;;
1765;SDS011;880;52.452;8.656;2023-01-24T07:29:40;12.10;;;10.50;;
1765;SDS011;880;52.452;8.656;2023-01-24T07:32:08;11.83;;;10.27;;
1765;SDS011;880;52.452;8.656;2023-01-24T07:34:36;13.50;;;11.13;;
1765;SDS011;880;52.452;8.656;2023-01-24T07:37:05;12.70;;;11.40;;
1765;SDS011;880;52.452;8.656;2023-01-24T07:39:33;11.50;;;10.07;;
1765;SDS011;880;52.452;8.656;2023-01-24T07:42:00;13.50;;;11.27;;
1765;SDS011;880;52.452;8.656;2023-01-24T07:44:27;12.50;;;10.63;;
1765;SDS011;880;52.452;8.656;2023-01-24T07:46:54;13.27;;;11.70;;
1765;SDS011;880;52.452;8.656;2023-01-24T07:49:21;13.17;;;11.00;;
1765;SDS011;880;52.452;8.656;2023-01-24T07:51:48;13.23;;;11.67;;
1765;SDS011;880;52.452;8.656;2023-01-24T07:54:15;15.43;;;12.37;;
1765;SDS011;880;52.452;8.656;2023-01-24T07:56:45;15.17;;;12.10;;
1765;SDS011;880;52.452;8.656;2023-01-24T07:59:12;13.67;;;11.93;;
1765;SDS011;880;52.452;8.656;2023-01-24T08:01:40;16.10;;;12.90;;
1765;SDS011;880;52.452;8.656;2023-01-24T08:04:07;15.80;;;12.67;;
1765;SDS011;880;52.452;8.656;2023-01-24T08:06:35;13.43;;;11.80;;
1765;SDS011;880;52.452;8.656;2023-01-24T08:09:02;15.20;;;13.00;;
1765;SDS011;880;52.452;8.656;2023-01-24T08:11:29;15.30;;;13.40;;
1765;SDS011;880;52.452;8.656;2023-01-24T08:13:56;14.50;;;12.30;;
1765;SDS011;880;52.452;8.656;2023-01-24T08:16:23;14.27;;;12.80;;
1765;SDS011;880;52.452;8.656;2023-01-24T08:18:52;13.30;;;11.90;;
1765;SDS011;880;52.452;8.656;2023-01-24T08:21:19;13.97;;;12.30;;
1765;SDS011;880;52.452;8.656;2023-01-24T08:23:46;13.97;;;12.53;;
1765;SDS011;880;52.452;8.656;2023-01-24T08:26:13;15.40;;;13.40;;
1765;SDS011;880;52.452;8.656;2023-01-24T08:28:40;15.87;;;13.83;;
1765;SDS011;880;52.452;8.656;2023-01-24T08:31:07;15.60;;;13.10;;
1765;SDS011;880;52.452;8.656;2023-01-24T08:33:34;15.20;;;12.60;;
1765;SDS011;880;52.452;8.656;2023-01-24T08:36:04;14.40;;;12.07;;
1765;SDS011;880;52.452;8.656;2023-01-24T08:38:31;14.30;;;12.90;;
1765;SDS011;880;52.452;8.656;2023-01-24T08:41:01;15.33;;;13.73;;
1765;SDS011;880;52.452;8.656;2023-01-24T08:43:31;15.53;;;13.63;;
1765;SDS011;880;52.452;8.656;2023-01-24T08:45:58;14.70;;;13.17;;
1765;SDS011;880;52.452;8.656;2023-01-24T08:48:27;18.07;;;13.23;;
1765;SDS011;880;52.452;8.656;2023-01-24T08:50:54;13.67;;;12.10;;
1765;SDS011;880;52.452;8.656;2023-01-24T08:53:21;14.30;;;12.87;;
1765;SDS011;880;52.452;8.656;2023-01-24T08:55:49;15.27;;;13.73;;
1765;SDS011;880;52.452;8.656;2023-01-24T08:58:16;17.40;;;14.30;;
1765;SDS011;880;52.452;8.656;2023-01-24T09:00:43;16.10;;;13.60;;
1765;SDS011;880;52.452;8.656;2023-01-24T09:03:15;16.93;;;14.70;;
1765;SDS011;880;52.452;8.656;2023-01-24T09:05:44;14.97;;;13.40;;
1765;SDS011;880;52.452;8.656;2023-01-24T09:08:11;15.30;;;13.70;;
1765;SDS011;880;52.452;8.656;2023-01-24T09:10:38;15.57;;;13.90;;
1765;SDS011;880;52.452;8.656;2023-01-24T09:13:06;14.93;;;13.37;;
1765;SDS011;880;52.452;8.656;2023-01-24T09:15:33;15.30;;;13.70;;
1765;SDS011;880;52.452;8.656;2023-01-24T09:18:00;13.40;;;12.00;;
1765;SDS011;880;52.452;8.656;2023-01-24T09:20:28;14.70;;;13.20;;
1765;SDS011;880;52.452;8.656;2023-01-24T09:22:55;10.43;;;9.40;;
1765;SDS011;880;52.452;8.656;2023-01-24T09:25:22;12.80;;;10.90;;
1765;SDS011;880;52.452;8.656;2023-01-24T09:27:53;15.70;;;11.80;;
1765;SDS011;880;52.452;8.656;2023-01-24T09:30:21;13.03;;;11.67;;
1765;SDS011;880;52.452;8.656;2023-01-24T09:32:49;13.60;;;12.13;;
1765;SDS011;880;52.452;8.656;2023-01-24T09:35:16;13.17;;;11.10;;
1765;SDS011;880;52.452;8.656;2023-01-24T09:37:43;14.77;;;12.47;;
1765;SDS011;880;52.452;8.656;2023-01-24T09:40:21;13.30;;;10.73;;
1765;SDS011;880;52.452;8.656;2023-01-24T09:43:04;12.93;;;11.63;;
1765;SDS011;880;52.452;8.656;2023-01-24T09:46:04;12.90;;;11.30;;
1765;SDS011;880;52.452;8.656;2023-01-24T09:48:36;13.73;;;11.77;;
1765;SDS011;880;52.452;8.656;2023-01-24T09:51:04;13.80;;;12.40;;
1765;SDS011;880;52.452;8.656;2023-01-24T09:53:46;15.67;;;12.73;;
1765;SDS011;880;52.452;8.656;2023-01-24T09:56:34;12.03;;;10.83;;
1765;SDS011;880;52.452;8.656;2023-01-24T09:59:18;11.83;;;10.73;;
1765;SDS011;880;52.452;8.656;2023-01-24T10:02:15;15.63;;;11.80;;
1765;SDS011;880;52.452;8.656;2023-01-24T10:04:47;11.93;;;10.70;;
1765;SDS011;880;52.452;8.656;2023-01-24T10:07:25;13.33;;;12.03;;
1765;SDS011;880;52.452;8.656;2023-01-24T10:19:46;14.87;;;13.33;;
1765;SDS011;880;52.452;8.656;2023-01-24T10:25:18;14.07;;;12.87;;
1765;SDS011;880;52.452;8.656;2023-01-24T10:27:54;13.27;;;11.97;;
1765;SDS011;880;52.452;8.656;2023-01-24T10:30:38;13.27;;;12.00;;
1765;SDS011;880;52.452;8.656;2023-01-24T10:33:19;12.60;;;11.37;;
1765;SDS011;880;52.452;8.656;2023-01-24T10:38:48;12.00;;;10.80;;
1765;SDS011;880;52.452;8.656;2023-01-24T10:43:48;14.30;;;11.70;;
1765;SDS011;880;52.452;8.656;2023-01-24T10:49:28;12.10;;;10.90;;
1765;SDS011;880;52.452;8.656;2023-01-24T10:52:16;12.00;;;10.60;;
1765;SDS011;880;52.452;8.656;2023-01-24T10:54:54;12.47;;;11.20;;
1765;SDS011;880;52.452;8.656;2023-01-24T11:02:50;12.93;;;10.97;;
1765;SDS011;880;52.452;8.656;2023-01-24T11:05:21;12.37;;;11.07;;
1765;SDS011;880;52.452;8.656;2023-01-24T11:07:50;13.07;;;11.77;;
1765;SDS011;880;52.452;8.656;2023-01-24T11:10:21;11.83;;;10.63;;
1765;SDS011;880;52.452;8.656;2023-01-24T11:12:57;11.33;;;10.17;;
1765;SDS011;880;52.452;8.656;2023-01-24T11:15:26;13.07;;;11.77;;
1765;SDS011;880;52.452;8.656;2023-01-24T11:18:04;12.00;;;10.80;;
1765;SDS011;880;52.452;8.656;2023-01-24T11:20:38;12.73;;;11.47;;
1765;SDS011;880;52.452;8.656;2023-01-24T11:23:15;14.53;;;13.03;;
1765;SDS011;880;52.452;8.656;2023-01-24T11:25:54;14.77;;;12.70;;
1765;SDS011;880;52.452;8.656;2023-01-24T11:30:56;12.93;;;11.50;;
1765;SDS011;880;52.452;8.656;2023-01-24T11:36:22;15.60;;;12.47;;
1765;SDS011;880;52.452;8.656;2023-01-24T11:42:20;12.07;;;10.80;;
1765;SDS011;880;52.452;8.656;2023-01-24T11:45:07;11.50;;;10.50;;
1765;SDS011;880;52.452;8.656;2023-01-24T11:47:54;11.70;;;8.87;;
1765;SDS011;880;52.452;8.656;2023-01-24T11:50:40;11.43;;;10.40;;
1765;SDS011;880;52.452;8.656;2023-01-24T11:56:45;11.77;;;10.67;;
1765;SDS011;880;52.452;8.656;2023-01-24T12:07:53;10.87;;;9.97;;
1765;SDS011;880;52.452;8.656;2023-01-24T12:14:00;10.73;;;9.73;;
1765;SDS011;880;52.452;8.656;2023-01-24T12:22:59;11.07;;;9.87;;
1765;SDS011;880;52.452;8.656;2023-01-24T12:25:42;10.70;;;9.70;;
1765;SDS011;880;52.452;8.656;2023-01-24T12:28:16;9.73;;;8.77;;
1765;SDS011;880;52.452;8.656;2023-01-24T12:30:56;7.83;;;7.20;;
1765;SDS011;880;52.452;8.656;2023-01-24T12:33:37;7.97;;;7.27;;
1765;SDS011;880;52.452;8.656;2023-01-24T12:36:45;7.07;;;6.47;;
1765;SDS011;880;52.452;8.656;2023-01-24T12:39:24;7.33;;;6.73;;
1765;SDS011;880;52.452;8.656;2023-01-24T12:42:19;8.50;;;7.80;;
1765;SDS011;880;52.452;8.656;2023-01-24T12:45:04;7.70;;;7.10;;
1765;SDS011;880;52.452;8.656;2023-01-24T12:47:44;8.60;;;7.80;;
1765;SDS011;880;52.452;8.656;2023-01-24T12:50:27;7.83;;;7.13;;
1765;SDS011;880;52.452;8.656;2023-01-24T12:53:09;7.57;;;6.93;;
1765;SDS011;880;52.452;8.656;2023-01-24T12:58:40;7.17;;;6.57;;
1765;SDS011;880;52.452;8.656;2023-01-24T13:12:11;6.23;;;5.60;;
1765;SDS011;880;52.452;8.656;2023-01-24T13:14:48;8.30;;;7.50;;
1765;SDS011;880;52.452;8.656;2023-01-24T13:20:24;9.20;;;8.40;;
1765;SDS011;880;52.452;8.656;2023-01-24T13:26:11;8.40;;;7.60;;
1765;SDS011;880;52.452;8.656;2023-01-24T13:32:08;7.73;;;7.13;;
1765;SDS011;880;52.452;8.656;2023-01-24T13:34:48;8.80;;;6.90;;
1765;SDS011;880;52.452;8.656;2023-01-24T13:37:23;7.93;;;7.23;;
1765;SDS011;880;52.452;8.656;2023-01-24T13:39:58;7.80;;;7.10;;
1765;SDS011;880;52.452;8.656;2023-01-24T13:42:39;8.23;;;7.50;;
1765;SDS011;880;52.452;8.656;2023-01-24T13:47:52;9.07;;;8.27;;
1765;SDS011;880;52.452;8.656;2023-01-24T13:50:22;8.40;;;7.60;;
1765;SDS011;880;52.452;8.656;2023-01-24T13:52:51;10.20;;;9.13;;
1765;SDS011;880;52.452;8.656;2023-01-24T14:03:22;9.50;;;8.53;;
1765;SDS011;880;52.452;8.656;2023-01-24T14:21:45;10.60;;;9.70;;
1765;SDS011;880;52.452;8.656;2023-01-24T14:24:20;10.47;;;9.57;;
1765;SDS011;880;52.452;8.656;2023-01-24T14:26:59;11.37;;;10.10;;
1765;SDS011;880;52.452;8.656;2023-01-24T14:29:37;10.53;;;9.53;;
1765;SDS011;880;52.452;8.656;2023-01-24T14:32:24;9.80;;;8.90;;
1765;SDS011;880;52.452;8.656;2023-01-24T14:35:02;10.33;;;9.40;;
1765;SDS011;880;52.452;8.656;2023-01-24T14:37:46;11.37;;;10.10;;
1765;SDS011;880;52.452;8.656;2023-01-24T14:42:50;12.33;;;10.53;;
1765;SDS011;880;52.452;8.656;2023-01-24T14:45:29;12.77;;;10.60;;
1765;SDS011;880;52.452;8.656;2023-01-24T14:47:58;10.00;;;9.00;;
1765;SDS011;880;52.452;8.656;2023-01-24T14:50:33;10.90;;;9.40;;
1765;SDS011;880;52.452;8.656;2023-01-24T14:55:52;8.67;;;7.87;;
1765;SDS011;880;52.452;8.656;2023-01-24T14:58:23;7.40;;;6.80;;
1765;SDS011;880;52.452;8.656;2023-01-24T15:00:56;6.60;;;6.00;;
1765;SDS011;880;52.452;8.656;2023-01-24T15:03:27;7.07;;;6.43;;
1765;SDS011;880;52.452;8.656;2023-01-24T15:06:05;6.33;;;5.73;;
1765;SDS011;880;52.452;8.656;2023-01-24T15:08:40;7.33;;;6.63;;
1765;SDS011;880;52.452;8.656;2023-01-24T15:11:07;6.60;;;6.10;;
1765;SDS011;880;52.452;8.656;2023-01-24T15:13:54;7.10;;;6.40;;
1765;SDS011;880;52.452;8.656;2023-01-24T15:16:37;6.80;;;6.20;;
1765;SDS011;880;52.452;8.656;2023-01-24T15:19:15;7.73;;;6.40;;
1765;SDS011;880;52.452;8.656;2023-01-24T15:21:47;7.07;;;6.47;;
1765;SDS011;880;52.452;8.656;2023-01-24T15:24:26;6.70;;;6.10;;
1765;SDS011;880;52.452;8.656;2023-01-24T15:26:56;6.63;;;6.03;;
1765;SDS011;880;52.452;8.656;2023-01-24T15:32:48;6.50;;;5.90;;
1765;SDS011;880;52.452;8.656;2023-01-24T15:44:39;8.50;;;5.60;;
1765;SDS011;880;52.452;8.656;2023-01-24T15:47:17;8.20;;;7.50;;
1765;SDS011;880;52.452;8.656;2023-01-24T15:50:18;7.87;;;7.17;;
1765;SDS011;880;52.452;8.656;2023-01-24T15:53:25;9.90;;;7.73;;
1765;SDS011;880;52.452;8.656;2023-01-24T15:55:54;8.30;;;7.50;;
1765;SDS011;880;52.452;8.656;2023-01-24T15:58:30;8.77;;;8.07;;
1765;SDS011;880;52.452;8.656;2023-01-24T16:01:00;8.70;;;7.77;;
1765;SDS011;880;52.452;8.656;2023-01-24T16:03:27;9.77;;;8.87;;
1765;SDS011;880;52.452;8.656;2023-01-24T16:05:54;9.80;;;8.83;;
1765;SDS011;880;52.452;8.656;2023-01-24T16:08:21;10.33;;;9.33;;
1765;SDS011;880;52.452;8.656;2023-01-24T16:10:51;10.30;;;9.20;;
1765;SDS011;880;52.452;8.656;2023-01-24T16:13:39;20.80;;;14.63;;
1765;SDS011;880;52.452;8.656;2023-01-24T16:16:14;13.93;;;12.57;;
1765;SDS011;880;52.452;8.656;2023-01-24T16:18:42;12.40;;;11.27;;
1765;SDS011;880;52.452;8.656;2023-01-24T16:21:09;12.33;;;11.10;;
1765;SDS011;880;52.452;8.656;2023-01-24T16:23:36;11.27;;;10.17;;
1765;SDS011;880;52.452;8.656;2023-01-24T16:26:03;11.07;;;9.97;;
1765;SDS011;880;52.452;8.656;2023-01-24T16:28:30;11.40;;;10.10;;
1765;SDS011;880;52.452;8.656;2023-01-24T16:31:01;11.50;;;10.40;;
1765;SDS011;880;52.452;8.656;2023-01-24T16:33:28;11.13;;;10.03;;
1765;SDS011;880;52.452;8.656;2023-01-24T16:35:56;14.27;;;12.77;;
1765;SDS011;880;52.452;8.656;2023-01-24T16:38:23;10.60;;;9.50;;
1765;SDS011;880;52.452;8.656;2023-01-24T16:40:50;13.47;;;12.07;;
1765;SDS011;880;52.452;8.656;2023-01-24T16:43:18;11.90;;;10.73;;
1765;SDS011;880;52.452;8.656;2023-01-24T16:45:49;14.33;;;12.50;;
1765;SDS011;880;52.452;8.656;2023-01-24T16:48:17;14.07;;;12.57;;
1765;SDS011;880;52.452;8.656;2023-01-24T16:50:44;11.73;;;10.53;;
1765;SDS011;880;52.452;8.656;2023-01-24T16:53:12;13.17;;;11.77;;
1765;SDS011;880;52.452;8.656;2023-01-24T16:55:40;13.73;;;11.87;;
1765;SDS011;880;52.452;8.656;2023-01-24T16:58:08;13.20;;;11.80;;
1765;SDS011;880;52.452;8.656;2023-01-24T17:00:38;13.67;;;12.33;;
1765;SDS011;880;52.452;8.656;2023-01-24T17:03:05;13.87;;;12.40;;
1765;SDS011;880;52.452;8.656;2023-01-24T17:05:32;15.40;;;13.43;;
1765;SDS011;880;52.452;8.656;2023-01-24T17:07:59;15.87;;;14.17;;
1765;SDS011;880;52.452;8.656;2023-01-24T17:10:26;15.47;;;13.53;;
1765;SDS011;880;52.452;8.656;2023-01-24T17:12:53;16.77;;;14.40;;
1765;SDS011;880;52.452;8.656;2023-01-24T17:15:20;16.37;;;14.67;;
1765;SDS011;880;52.452;8.656;2023-01-24T17:17:47;18.60;;;16.60;;
1765;SDS011;880;52.452;8.656;2023-01-24T17:20:14;17.97;;;15.30;;
1765;SDS011;880;52.452;8.656;2023-01-24T17:22:41;24.37;;;21.77;;
1765;SDS011;880;52.452;8.656;2023-01-24T17:25:08;17.63;;;15.67;;
1765;SDS011;880;52.452;8.656;2023-01-24T17:27:36;19.60;;;17.60;;
1765;SDS011;880;52.452;8.656;2023-01-24T17:30:03;21.30;;;19.00;;
1765;SDS011;880;52.452;8.656;2023-01-24T17:32:32;17.90;;;14.90;;
1765;SDS011;880;52.452;8.656;2023-01-24T17:35:00;19.23;;;17.33;;
1765;SDS011;880;52.452;8.656;2023-01-24T17:37:27;15.00;;;13.17;;
1765;SDS011;880;52.452;8.656;2023-01-24T17:39:54;13.60;;;11.43;;
1765;SDS011;880;52.452;8.656;2023-01-24T17:42:21;17.23;;;15.43;;
1765;SDS011;880;52.452;8.656;2023-01-24T17:44:48;22.27;;;19.97;;
1765;SDS011;880;52.452;8.656;2023-01-24T17:47:15;20.70;;;18.87;;
1765;SDS011;880;52.452;8.656;2023-01-24T17:49:42;18.67;;;16.83;;
1765;SDS011;880;52.452;8.656;2023-01-24T17:52:09;36.03;;;24.57;;
1765;SDS011;880;52.452;8.656;2023-01-24T17:54:36;23.33;;;17.97;;
1765;SDS011;880;52.452;8.656;2023-01-24T17:57:03;18.10;;;16.40;;
1765;SDS011;880;52.452;8.656;2023-01-24T17:59:30;17.27;;;15.00;;